createdAt,value
2023-01-05T00:01:06.153Z,12.90
2023-01-05T00:03:33.681Z,13.00
2023-01-05T00:06:01.875Z,13.00
2023-01-05T00:08:34.638Z,13.00
2023-01-05T00:11:32.588Z,13.00
2023-01-05T00:14:19.115Z,12.90
2023-01-05T00:17:05.255Z,13.00
2023-01-05T00:19:50.787Z,12.70
2023-01-05T00:22:33.621Z,12.80
2023-01-05T00:25:02.289Z,13.00
2023-01-05T00:27:34.754Z,13.10
2023-01-05T00:30:01.949Z,13.20
2023-01-05T00:32:29.273Z,13.10
2023-01-05T00:34:57.500Z,13.10
2023-01-05T00:37:26.867Z,13.20
2023-01-05T00:39:54.309Z,13.20
2023-01-05T00:42:23.419Z,13.10
2023-01-05T00:44:50.325Z,12.90
2023-01-05T00:47:17.226Z,12.90
2023-01-05T00:49:44.215Z,13.00
2023-01-05T00:52:11.048Z,12.90
2023-01-05T00:54:37.917Z,12.60
2023-01-05T00:57:07.130Z,12.50
2023-01-05T00:59:35.606Z,12.40
2023-01-05T01:02:02.908Z,12.40
2023-01-05T01:04:33.908Z,12.40
2023-01-05T01:07:01.230Z,12.50
2023-01-05T01:09:28.649Z,12.60
2023-01-05T01:11:55.716Z,12.50
2023-01-05T01:14:22.922Z,12.50
2023-01-05T01:16:50.373Z,12.60
2023-01-05T01:19:22.715Z,12.70
2023-01-05T01:21:49.974Z,12.60
2023-01-05T01:24:20.250Z,12.60
2023-01-05T01:26:47.522Z,12.70
2023-01-05T01:29:17.349Z,12.60
2023-01-05T01:31:46.876Z,12.50
2023-01-05T01:34:13.837Z,12.60
2023-01-05T01:36:42.515Z,12.60
2023-01-05T01:39:13.703Z,12.70
2023-01-05T01:41:45.912Z,12.80
2023-01-05T01:44:50.035Z,12.60
2023-01-05T01:47:31.172Z,12.40
2023-01-05T01:50:01.529Z,12.50
2023-01-05T01:52:30.932Z,12.60
2023-01-05T01:54:58.309Z,12.80
2023-01-05T01:57:28.103Z,12.80
2023-01-05T01:59:58.620Z,12.60
2023-01-05T02:02:27.924Z,12.50
2023-01-05T02:04:59.889Z,12.70
2023-01-05T02:07:31.312Z,12.60
2023-01-05T02:09:58.129Z,12.80
2023-01-05T02:12:36.940Z,12.90
2023-01-05T02:15:34.096Z,13.00
2023-01-05T02:18:04.324Z,13.00
2023-01-05T02:20:42.572Z,12.80
2023-01-05T02:23:59.823Z,12.80
2023-01-05T02:26:39.086Z,12.90
2023-01-05T02:29:39.757Z,12.90
2023-01-05T02:32:15.597Z,13.00
2023-01-05T02:35:11.235Z,13.00
2023-01-05T02:37:45.287Z,13.10
2023-01-05T02:40:21.531Z,13.10
2023-01-05T02:42:52.620Z,13.10
2023-01-05T02:45:23.086Z,13.00
2023-01-05T02:47:54.390Z,12.80
2023-01-05T02:50:30.020Z,12.80
2023-01-05T02:53:31.714Z,12.90
2023-01-05T02:56:13.691Z,12.60
2023-01-05T02:58:43.176Z,12.70
2023-01-05T03:01:31.509Z,12.60
2023-01-05T03:04:14.661Z,12.80
2023-01-05T03:06:47.599Z,12.80
2023-01-05T03:09:20.101Z,12.90
2023-01-05T03:12:15.453Z,12.90
2023-01-05T03:14:56.927Z,12.80
2023-01-05T03:17:36.804Z,12.70
2023-01-05T03:20:05.625Z,12.70
2023-01-05T03:22:54.455Z,12.80
2023-01-05T03:25:42.517Z,12.80
2023-01-05T03:28:45.664Z,12.70
2023-01-05T03:31:40.052Z,12.80
2023-01-05T03:34:42.784Z,12.90
2023-01-05T03:37:22.605Z,12.80
2023-01-05T03:39:49.879Z,12.80
2023-01-05T03:42:17.107Z,12.80
2023-01-05T03:44:46.131Z,12.90
2023-01-05T03:47:16.505Z,12.80
2023-01-05T03:49:44.576Z,12.80
2023-01-05T03:52:12.527Z,12.90
2023-01-05T03:54:41.587Z,12.80
2023-01-05T03:57:08.488Z,12.60
2023-01-05T03:59:35.447Z,12.80
2023-01-05T04:02:04.253Z,12.80
2023-01-05T04:04:32.202Z,12.80
2023-01-05T04:07:00.933Z,12.80
2023-01-05T04:09:31.696Z,12.90
2023-01-05T04:11:58.816Z,12.80
2023-01-05T04:14:25.682Z,12.90
2023-01-05T04:16:52.981Z,12.90
2023-01-05T04:19:23.479Z,12.90
2023-01-05T04:21:53.171Z,12.80
2023-01-05T04:24:22.552Z,12.70
2023-01-05T04:26:49.545Z,12.60
2023-01-05T04:29:18.919Z,12.60
2023-01-05T04:31:48.889Z,12.60
2023-01-05T04:34:15.869Z,12.50
2023-01-05T04:36:44.400Z,12.60
2023-01-05T04:39:15.731Z,12.70
2023-01-05T04:41:44.614Z,12.60
2023-01-05T04:44:12.465Z,12.60
2023-01-05T04:46:40.742Z,12.60
2023-01-05T04:49:11.169Z,12.60
2023-01-05T04:51:41.453Z,12.60
2023-01-05T04:54:09.293Z,12.70
2023-01-05T04:56:36.719Z,12.50
2023-01-05T04:59:06.553Z,12.50
2023-01-05T05:01:35.649Z,12.40
2023-01-05T05:04:04.072Z,12.50
2023-01-05T05:06:30.957Z,12.60
2023-01-05T05:08:59.173Z,12.50
2023-01-05T05:11:30.091Z,12.50
2023-01-05T05:13:57.179Z,12.60
2023-01-05T05:16:25.036Z,12.50
2023-01-05T05:18:53.548Z,12.60
2023-01-05T05:21:24.395Z,12.60
2023-01-05T05:23:51.801Z,12.60
2023-01-05T05:26:19.632Z,12.60
2023-01-05T05:28:47.820Z,12.50
2023-01-05T05:31:14.712Z,12.50
2023-01-05T05:33:41.746Z,12.40
2023-01-05T05:36:09.067Z,12.30
2023-01-05T05:38:35.998Z,12.50
2023-01-05T05:41:02.796Z,12.50
2023-01-05T05:43:32.346Z,12.50
2023-01-05T05:45:59.193Z,12.40
2023-01-05T05:48:26.151Z,12.30
2023-01-05T05:50:53.299Z,12.20
2023-01-05T05:53:20.169Z,12.30
2023-01-05T05:55:53.693Z,12.40
2023-01-05T05:58:20.577Z,12.30
2023-01-05T06:00:47.575Z,12.30
2023-01-05T06:03:14.886Z,12.30
2023-01-05T06:05:41.857Z,12.20
2023-01-05T06:08:09.000Z,12.20
2023-01-05T06:10:35.819Z,12.20
2023-01-05T06:13:02.869Z,12.20
2023-01-05T06:15:29.710Z,12.20
2023-01-05T06:17:56.571Z,12.30
2023-01-05T06:20:26.173Z,12.40
2023-01-05T06:22:53.072Z,12.40
2023-01-05T06:25:19.934Z,12.20
2023-01-05T06:27:46.744Z,12.10
2023-01-05T06:30:13.937Z,12.10
2023-01-05T06:32:40.995Z,12.10
2023-01-05T06:35:08.169Z,12.10
2023-01-05T06:37:35.172Z,12.20
2023-01-05T06:40:02.301Z,12.40
2023-01-05T06:42:29.133Z,12.20
2023-01-05T06:44:56.142Z,12.10
2023-01-05T06:47:22.995Z,12.20
2023-01-05T06:49:49.819Z,12.20
2023-01-05T06:52:17.160Z,12.20
2023-01-05T06:54:46.747Z,12.20
2023-01-05T06:57:13.715Z,12.10
2023-01-05T06:59:40.572Z,12.20
2023-01-05T07:02:13.724Z,12.20
2023-01-05T07:04:40.614Z,12.20
2023-01-05T07:07:07.454Z,12.30
2023-01-05T07:09:34.317Z,12.20
2023-01-05T07:12:01.152Z,12.20
2023-01-05T07:14:27.997Z,12.20
2023-01-05T07:16:54.861Z,12.20
2023-01-05T07:19:21.807Z,12.10
2023-01-05T07:21:54.827Z,12.30
2023-01-05T07:24:26.688Z,12.20
2023-01-05T07:26:53.529Z,12.20
2023-01-05T07:29:20.373Z,12.10
2023-01-05T07:31:52.491Z,12.10
2023-01-05T07:34:20.564Z,12.10
2023-01-05T07:36:47.881Z,12.20
2023-01-05T07:39:15.148Z,12.20
2023-01-05T07:41:42.114Z,12.10
2023-01-05T07:44:10.332Z,12.20
2023-01-05T07:46:37.413Z,12.00
2023-01-05T07:49:04.324Z,12.10
2023-01-05T07:51:31.153Z,12.20
2023-01-05T07:53:58.260Z,12.30
2023-01-05T07:56:25.108Z,12.30
2023-01-05T07:58:51.960Z,12.30
2023-01-05T08:01:19.066Z,12.40
2023-01-05T08:03:46.511Z,12.50
2023-01-05T08:06:15.997Z,12.40
2023-01-05T08:08:42.877Z,12.30
2023-01-05T08:11:11.407Z,12.20
2023-01-05T08:13:56.948Z,12.10
2023-01-05T08:16:35.660Z,12.10
2023-01-05T08:19:05.181Z,12.00
2023-01-05T08:21:34.845Z,12.00
2023-01-05T08:24:01.880Z,12.00
2023-01-05T08:26:28.745Z,12.10
2023-01-05T08:28:55.707Z,12.20
2023-01-05T08:31:26.251Z,12.40
2023-01-05T08:34:00.168Z,12.30
2023-01-05T08:36:27.750Z,12.30
2023-01-05T08:38:55.294Z,12.40
2023-01-05T08:41:36.877Z,12.40
2023-01-05T08:44:06.756Z,12.30
2023-01-05T08:46:35.258Z,12.40
2023-01-05T08:49:04.200Z,12.50
2023-01-05T08:51:31.614Z,12.40
2023-01-05T08:53:58.659Z,12.40
2023-01-05T08:56:27.034Z,12.40
2023-01-05T08:58:59.065Z,12.60
2023-01-05T09:01:26.580Z,12.70
2023-01-05T09:03:53.675Z,12.80
2023-01-05T09:06:20.771Z,12.90
2023-01-05T09:08:48.616Z,13.00
2023-01-05T09:11:21.141Z,13.00
2023-01-05T09:13:53.491Z,13.10
2023-01-05T09:19:10.858Z,12.50
2023-01-05T09:21:39.661Z,12.50
2023-01-05T09:24:07.924Z,12.70
2023-01-05T09:26:34.912Z,12.60
2023-01-05T09:29:01.764Z,12.60
2023-01-05T09:31:28.677Z,12.70
2023-01-05T09:33:57.729Z,12.80
2023-01-05T09:36:25.700Z,12.90
2023-01-05T09:38:54.185Z,13.00
2023-01-05T09:41:28.994Z,13.00
2023-01-05T09:43:59.453Z,13.10
2023-01-05T09:46:54.041Z,13.10
2023-01-05T09:49:23.102Z,13.10
2023-01-05T09:51:57.847Z,13.00
2023-01-05T09:54:29.412Z,13.20
2023-01-05T09:57:09.201Z,13.40
2023-01-05T09:59:39.515Z,13.30
2023-01-05T10:03:01.616Z,13.40
2023-01-05T10:05:29.224Z,13.60
2023-01-05T10:08:08.129Z,13.60
2023-01-05T10:11:07.898Z,13.60
2023-01-05T10:13:39.481Z,13.60
2023-01-05T10:16:06.927Z,13.60
2023-01-05T10:18:34.698Z,13.60
2023-01-05T10:21:20.288Z,13.70
2023-01-05T10:24:01.921Z,13.30
2023-01-05T10:27:22.631Z,13.20
2023-01-05T10:29:42.534Z,13.30
2023-01-05T10:32:32.361Z,13.30
2023-01-05T10:35:42.024Z,13.30
2023-01-05T10:38:14.748Z,13.40
2023-01-05T10:40:55.895Z,13.10
2023-01-05T10:43:51.540Z,13.30
2023-01-05T10:46:41.121Z,13.60
2023-01-05T10:49:13.551Z,13.70
2023-01-05T10:51:40.999Z,13.70
2023-01-05T10:54:26.621Z,13.50
2023-01-05T10:56:53.365Z,13.50
2023-01-05T10:59:20.259Z,13.70
2023-01-05T11:01:50.177Z,13.90
2023-01-05T11:04:33.206Z,13.90
2023-01-05T11:07:06.617Z,14.00
2023-01-05T11:09:39.190Z,13.80
2023-01-05T11:12:06.195Z,13.70
2023-01-05T11:14:44.202Z,13.40
2023-01-05T11:17:17.480Z,13.70
2023-01-05T11:19:48.012Z,13.80
2023-01-05T11:22:51.282Z,13.90
2023-01-05T11:25:20.667Z,14.10
2023-01-05T11:28:05.476Z,14.10
2023-01-05T11:30:33.560Z,14.20
2023-01-05T11:33:01.785Z,14.30
2023-01-05T11:35:36.613Z,14.40
2023-01-05T11:38:03.877Z,14.50
2023-01-05T11:40:34.443Z,14.50
2023-01-05T11:43:10.649Z,14.40
2023-01-05T11:45:45.755Z,14.50
2023-01-05T11:48:18.727Z,14.60
2023-01-05T11:50:51.422Z,14.60
2023-01-05T11:53:26.255Z,14.60
2023-01-05T11:56:08.386Z,14.80
2023-01-05T11:59:05.129Z,14.80
2023-01-05T12:02:15.430Z,14.80
2023-01-05T12:04:55.839Z,14.80
2023-01-05T12:07:37.069Z,14.80
2023-01-05T12:10:13.088Z,14.90
2023-01-05T12:12:47.395Z,14.80
2023-01-05T12:15:43.304Z,14.80
2023-01-05T12:18:22.184Z,14.70
2023-01-05T12:21:12.995Z,14.70
2023-01-05T12:23:59.097Z,14.70
2023-01-05T12:26:35.842Z,14.70
2023-01-05T12:30:43.285Z,14.60
2023-01-05T12:35:34.861Z,14.70
2023-01-05T12:38:42.597Z,14.80
2023-01-05T12:41:37.269Z,15.00
2023-01-05T12:44:40.996Z,15.00
2023-01-05T12:47:22.566Z,15.00
2023-01-05T12:49:55.066Z,15.10
2023-01-05T12:52:41.846Z,15.10
2023-01-05T12:55:22.218Z,15.10
2023-01-05T12:58:03.908Z,15.20
2023-01-05T13:00:36.168Z,15.10
2023-01-05T13:03:21.449Z,15.10
2023-01-05T13:06:14.662Z,15.10
2023-01-05T13:09:04.658Z,15.10
2023-01-05T13:11:56.531Z,15.00
2023-01-05T13:14:29.556Z,15.00
2023-01-05T13:17:05.177Z,15.10
2023-01-05T13:19:48.629Z,15.00
2023-01-05T13:22:23.525Z,15.00
2023-01-05T13:25:01.568Z,15.10
2023-01-05T13:27:29.763Z,15.10
2023-01-05T13:29:59.765Z,15.10
2023-01-05T13:33:15.557Z,15.00
2023-01-05T13:36:13.412Z,15.10
2023-01-05T13:39:19.122Z,14.90
2023-01-05T13:42:12.157Z,14.90
2023-01-05T13:45:10.401Z,14.80
2023-01-05T13:48:14.975Z,14.90
2023-01-05T13:51:06.237Z,14.90
2023-01-05T13:53:37.762Z,14.90
2023-01-05T13:56:25.012Z,14.90
2023-01-05T13:58:58.193Z,14.80
2023-01-05T14:01:38.806Z,14.80
2023-01-05T14:04:16.631Z,14.80
2023-01-05T14:06:48.978Z,14.80
2023-01-05T14:09:35.318Z,14.80
2023-01-05T14:12:08.124Z,14.70
2023-01-05T14:15:00.544Z,14.80
2023-01-05T14:17:55.713Z,14.70
2023-01-05T14:20:33.739Z,14.70
2023-01-05T14:23:02.348Z,14.70
2023-01-05T14:25:38.372Z,14.70
2023-01-05T14:28:29.285Z,14.70
2023-01-05T14:31:11.846Z,14.70
2023-01-05T14:33:46.860Z,14.70
2023-01-05T14:36:37.965Z,14.70
2023-01-05T14:39:23.335Z,14.70
2023-01-05T14:42:11.054Z,14.70
2023-01-05T14:44:57.237Z,14.70
2023-01-05T14:47:48.583Z,14.60
2023-01-05T14:50:38.430Z,14.70
2023-01-05T14:53:34.328Z,14.60
2023-01-05T14:56:01.222Z,14.60
2023-01-05T14:58:37.346Z,14.60
2023-01-05T15:01:16.627Z,14.70
2023-01-05T15:04:04.946Z,14.60
2023-01-05T15:06:58.959Z,14.60
2023-01-05T15:09:28.564Z,14.60
2023-01-05T15:12:26.988Z,14.50
2023-01-05T15:15:08.535Z,14.50
2023-01-05T15:17:48.349Z,14.50
2023-01-05T15:20:24.453Z,14.40
2023-01-05T15:23:34.488Z,14.40
2023-01-05T15:26:25.841Z,14.40
2023-01-05T15:29:17.040Z,14.40
2023-01-05T15:31:48.663Z,14.40
2023-01-05T15:34:30.537Z,14.40
2023-01-05T15:37:12.915Z,14.30
2023-01-05T15:39:48.698Z,14.30
2023-01-05T15:42:35.391Z,14.20
2023-01-05T15:45:02.461Z,14.20
2023-01-05T15:47:30.426Z,14.20
2023-01-05T15:50:01.815Z,14.10
2023-01-05T15:52:37.837Z,14.10
2023-01-05T15:55:12.256Z,14.10
2023-01-05T15:57:39.183Z,14.00
2023-01-05T16:00:41.493Z,13.80
2023-01-05T16:03:46.456Z,13.60
2023-01-05T16:06:39.198Z,13.50
2023-01-05T16:09:34.845Z,13.30
2023-01-05T16:12:08.039Z,13.20
2023-01-05T16:14:46.890Z,13.20
2023-01-05T16:17:25.231Z,13.10
2023-01-05T16:19:56.268Z,13.00
2023-01-05T16:22:40.427Z,12.90
2023-01-05T16:25:23.993Z,12.80
2023-01-05T16:27:58.623Z,13.00
2023-01-05T16:30:35.715Z,13.10
2023-01-05T16:33:04.558Z,13.00
2023-01-05T16:35:35.386Z,13.00
2023-01-05T16:38:09.082Z,13.00
2023-01-05T16:41:01.829Z,13.00
2023-01-05T16:43:36.629Z,13.00
2023-01-05T16:46:18.566Z,13.00
2023-01-05T16:49:19.066Z,12.80
2023-01-05T16:51:46.093Z,12.70
2023-01-05T16:54:21.978Z,12.50
2023-01-05T16:56:57.773Z,12.40
2023-01-05T16:59:39.905Z,12.60
2023-01-05T17:02:39.762Z,12.70
2023-01-05T17:05:07.604Z,12.50
2023-01-05T17:07:38.995Z,12.30
2023-01-05T17:10:08.515Z,12.10
2023-01-05T17:12:35.391Z,12.10
2023-01-05T17:15:06.079Z,12.30
2023-01-05T17:17:33.012Z,12.50
2023-01-05T17:19:59.924Z,12.50
2023-01-05T17:22:26.936Z,12.40
2023-01-05T17:24:53.762Z,12.40
2023-01-05T17:27:20.670Z,12.50
2023-01-05T17:29:47.589Z,12.30
2023-01-05T17:32:15.065Z,12.50
2023-01-05T17:34:42.406Z,12.50
2023-01-05T17:37:15.140Z,12.50
2023-01-05T17:39:43.975Z,12.40
2023-01-05T17:42:29.678Z,12.50
2023-01-05T17:44:56.719Z,12.50
2023-01-05T17:47:23.643Z,12.50
2023-01-05T17:49:50.526Z,12.60
2023-01-05T17:52:17.405Z,12.60
2023-01-05T17:54:45.704Z,12.60
2023-01-05T17:57:13.400Z,12.40
2023-01-05T18:02:12.183Z,12.20
2023-01-05T18:04:38.983Z,12.10
2023-01-05T18:07:05.921Z,12.00
2023-01-05T18:09:33.838Z,12.00
2023-01-05T18:12:00.708Z,12.10
2023-01-05T18:14:27.754Z,12.10
2023-01-05T18:16:54.536Z,12.10
2023-01-05T18:19:21.454Z,12.10
2023-01-05T18:21:48.235Z,12.30
2023-01-05T18:24:15.077Z,12.50
2023-01-05T18:26:41.951Z,12.50
2023-01-05T18:29:08.798Z,12.60
2023-01-05T18:31:40.214Z,12.60
2023-01-05T18:34:08.979Z,12.70
2023-01-05T18:36:35.766Z,12.60
2023-01-05T18:39:02.992Z,12.60
2023-01-05T18:41:29.930Z,12.50
2023-01-05T18:43:56.849Z,12.60
2023-01-05T18:46:23.794Z,12.60
2023-01-05T18:48:51.502Z,12.60
2023-01-05T18:51:18.785Z,12.60
2023-01-05T18:53:45.737Z,12.60
2023-01-05T18:56:14.111Z,12.60
2023-01-05T18:58:41.257Z,12.60
2023-01-05T19:01:13.547Z,12.70
2023-01-05T19:03:40.945Z,12.70
2023-01-05T19:06:15.814Z,12.80
2023-01-05T19:08:48.912Z,12.90
2023-01-05T19:11:22.052Z,12.90
2023-01-05T19:13:50.229Z,12.80
2023-01-05T19:16:21.828Z,12.60
2023-01-05T19:18:53.895Z,12.50
2023-01-05T19:21:21.672Z,12.50
2023-01-05T19:23:53.856Z,12.50
2023-01-05T19:26:20.717Z,12.30
2023-01-05T19:28:47.672Z,12.30
2023-01-05T19:31:15.509Z,12.40
2023-01-05T19:33:42.606Z,12.50
2023-01-05T19:36:23.206Z,12.70
2023-01-05T19:38:50.448Z,12.80
2023-01-05T19:41:26.182Z,12.70
2023-01-05T19:43:54.979Z,12.70
2023-01-05T19:46:23.308Z,12.70
2023-01-05T19:48:50.288Z,12.90
2023-01-05T19:51:23.347Z,12.90
2023-01-05T19:54:02.648Z,12.80
2023-01-05T19:56:36.350Z,12.80
2023-01-05T19:59:10.070Z,12.70
2023-01-05T20:01:37.666Z,12.70
2023-01-05T20:04:04.928Z,12.90
2023-01-05T20:06:36.012Z,12.90
2023-01-05T20:09:09.230Z,12.90
2023-01-05T20:11:39.624Z,12.90
2023-01-05T20:14:26.765Z,12.80
2023-01-05T20:16:59.878Z,12.80
2023-01-05T20:19:29.192Z,12.90
2023-01-05T20:21:57.516Z,12.90
2023-01-05T20:24:27.812Z,12.80
2023-01-05T20:27:01.877Z,12.80
2023-01-05T20:29:30.410Z,12.90
2023-01-05T20:31:57.248Z,12.90
2023-01-05T20:34:28.098Z,12.80
2023-01-05T20:36:56.018Z,12.80
2023-01-05T20:39:22.945Z,12.90
2023-01-05T20:41:52.711Z,12.90
2023-01-05T20:44:24.180Z,12.70
2023-01-05T20:46:53.801Z,12.90
2023-01-05T20:49:22.068Z,12.90
2023-01-05T20:51:50.330Z,13.00
2023-01-05T20:54:17.429Z,13.00
2023-01-05T20:56:46.387Z,12.80
2023-01-05T20:59:24.768Z,12.80
2023-01-05T21:01:52.019Z,12.70
2023-01-05T21:04:21.953Z,12.70
2023-01-05T21:06:51.387Z,12.90
2023-01-05T21:09:18.208Z,12.80
2023-01-05T21:11:46.066Z,12.70
2023-01-05T21:14:14.199Z,12.70
2023-01-05T21:16:44.429Z,12.70
2023-01-05T21:19:17.491Z,12.60
2023-01-05T21:21:49.155Z,12.60
2023-01-05T21:24:16.647Z,12.70
2023-01-05T21:26:43.624Z,12.80
2023-01-05T21:29:13.358Z,12.90
2023-01-05T21:31:40.328Z,12.90
2023-01-05T21:34:07.275Z,13.00
2023-01-05T21:36:38.292Z,13.10
2023-01-05T21:39:08.580Z,13.10
2023-01-05T21:41:55.761Z,13.10
2023-01-05T21:44:26.114Z,13.10
2023-01-05T21:46:52.972Z,13.00
2023-01-05T21:49:20.002Z,13.10
2023-01-05T21:52:05.862Z,13.10
2023-01-05T21:54:51.349Z,13.10
2023-01-05T21:57:18.591Z,13.00
2023-01-05T21:59:45.637Z,13.00
2023-01-05T22:02:13.694Z,12.90
2023-01-05T22:04:40.623Z,12.70
2023-01-05T22:07:07.657Z,12.70
2023-01-05T22:09:35.485Z,12.70
2023-01-05T22:12:03.378Z,12.90
2023-01-05T22:14:30.237Z,12.80
2023-01-05T22:16:57.055Z,12.80
2023-01-05T22:19:24.011Z,12.80
2023-01-05T22:21:50.980Z,12.70
2023-01-05T22:24:17.797Z,12.50
2023-01-05T22:26:44.658Z,12.60
2023-01-05T22:29:11.451Z,12.70
2023-01-05T22:31:38.388Z,12.70
2023-01-05T22:34:05.692Z,12.70
2023-01-05T22:36:32.588Z,12.70
2023-01-05T22:39:00.699Z,12.70
2023-01-05T22:41:29.982Z,12.70
2023-01-05T22:43:58.941Z,12.70
2023-01-05T22:46:28.099Z,12.60
2023-01-05T22:48:56.268Z,12.70
2023-01-05T22:51:30.288Z,12.90
2023-01-05T22:53:58.264Z,12.90
2023-01-05T22:56:26.964Z,12.60
2023-01-05T22:58:55.811Z,12.50
2023-01-05T23:01:38.354Z,12.60
2023-01-05T23:04:06.802Z,12.50
2023-01-05T23:06:34.296Z,12.40
2023-01-05T23:09:02.065Z,12.60
2023-01-05T23:11:31.149Z,12.60
2023-01-05T23:14:02.571Z,12.60
2023-01-05T23:16:29.702Z,12.50
2023-01-05T23:18:56.709Z,12.50
2023-01-05T23:21:25.537Z,12.40
2023-01-05T23:23:54.927Z,12.50
2023-01-05T23:26:23.116Z,12.40
2023-01-05T23:28:50.387Z,12.40
2023-01-05T23:31:19.093Z,12.40
2023-01-05T23:33:47.693Z,12.60
2023-01-05T23:36:16.244Z,12.60
2023-01-05T23:38:44.317Z,12.50
2023-01-05T23:41:12.948Z,12.60
2023-01-05T23:43:41.491Z,12.60
2023-01-05T23:46:11.084Z,12.60
2023-01-05T23:48:38.871Z,12.60
2023-01-05T23:51:11.238Z,12.70
2023-01-05T23:53:38.104Z,12.60
2023-01-05T23:56:13.940Z,12.60
2023-01-05T23:58:41.289Z,12.70
